createdAt,value
2018-12-23T05:00:31.991Z,984.73
2018-12-23T05:01:31.980Z,984.73
2018-12-23T05:02:31.955Z,984.72
2018-12-23T05:03:31.942Z,984.60
2018-12-23T05:04:31.930Z,984.58
2018-12-23T05:05:31.920Z,984.59
2018-12-23T05:06:31.924Z,984.60
2018-12-23T05:07:31.897Z,984.61
2018-12-23T05:08:31.886Z,984.67
2018-12-23T05:09:31.875Z,984.72
2018-12-23T05:10:31.874Z,984.75
2018-12-23T05:11:31.867Z,984.78
2018-12-23T05:12:31.944Z,984.74
2018-12-23T05:13:34.202Z,984.77
2018-12-23T05:14:31.824Z,984.74
2018-12-23T05:15:31.807Z,984.69
2018-12-23T05:16:31.806Z,984.77
2018-12-23T05:17:31.783Z,984.79
2018-12-23T05:18:31.776Z,984.81
2018-12-23T05:19:31.762Z,984.80
2018-12-23T05:20:31.750Z,984.79
2018-12-23T05:21:31.763Z,984.81
2018-12-23T05:22:31.728Z,984.79
2018-12-23T05:23:31.720Z,984.77
2018-12-23T05:24:31.706Z,984.77
2018-12-23T05:25:31.694Z,984.70
2018-12-23T05:26:31.698Z,984.72
2018-12-23T05:27:31.671Z,984.68
2018-12-23T05:28:31.663Z,984.73
2018-12-23T05:29:31.648Z,984.74
2018-12-23T05:30:31.639Z,984.78
2018-12-23T05:31:31.645Z,984.84
2018-12-23T05:32:31.614Z,984.78
2018-12-23T05:33:31.603Z,984.78
2018-12-23T05:34:31.591Z,984.78
2018-12-23T05:35:31.581Z,984.73
2018-12-23T05:36:31.581Z,984.77
2018-12-23T05:37:31.558Z,984.77
2018-12-23T05:38:31.546Z,984.81
2018-12-23T05:39:31.535Z,984.78
2018-12-23T05:40:31.527Z,984.82
2018-12-23T05:41:31.526Z,984.87
2018-12-23T05:42:31.502Z,984.85
2018-12-23T05:43:31.495Z,984.95
2018-12-23T05:44:31.478Z,984.93
2018-12-23T05:45:31.493Z,984.92
2018-12-23T05:46:31.478Z,984.96
2018-12-23T05:47:31.445Z,984.95
2018-12-23T05:48:31.438Z,984.99
2018-12-23T05:49:31.424Z,984.98
2018-12-23T05:50:31.411Z,984.94
2018-12-23T05:51:31.415Z,984.94
2018-12-23T05:52:31.388Z,984.98
2018-12-23T05:53:31.378Z,984.95
2018-12-23T05:54:31.369Z,984.91
2018-12-23T05:55:31.357Z,984.94
2018-12-23T05:56:31.354Z,984.91
2018-12-23T05:57:31.343Z,984.93
2018-12-23T05:58:31.333Z,984.98
2018-12-23T05:59:31.307Z,984.99
2018-12-23T06:00:31.294Z,984.95
2018-12-23T06:01:31.301Z,984.90
2018-12-23T06:02:31.273Z,984.86
2018-12-23T06:03:31.261Z,984.85
2018-12-23T06:04:31.248Z,984.87
2018-12-23T06:05:31.237Z,984.93
2018-12-23T06:06:31.238Z,985.02
2018-12-23T06:07:31.215Z,985.00
2018-12-23T06:08:31.206Z,985.01
2018-12-23T06:09:31.199Z,985.05
2018-12-23T06:10:31.183Z,985.00
2018-12-23T06:11:31.187Z,985.01
2018-12-23T06:12:31.161Z,985.11
2018-12-23T06:13:31.148Z,985.07
2018-12-23T06:14:31.140Z,985.10
2018-12-23T06:15:31.129Z,985.12
2018-12-23T06:16:31.131Z,985.13
2018-12-23T06:17:31.102Z,985.19
2018-12-23T06:18:31.091Z,985.16
2018-12-23T06:19:31.080Z,985.19
2018-12-23T06:20:31.073Z,985.11
2018-12-23T06:21:31.073Z,985.13
2018-12-23T06:22:31.047Z,985.15
2018-12-23T06:23:31.035Z,985.10
2018-12-23T06:24:31.026Z,985.09
2018-12-23T06:25:31.012Z,985.14
2018-12-23T06:26:31.016Z,985.10
2018-12-23T06:27:30.992Z,985.08
2018-12-23T06:28:30.978Z,985.09
2018-12-23T06:29:30.979Z,985.10
2018-12-23T06:30:30.954Z,985.18
2018-12-23T06:31:30.958Z,985.14
2018-12-23T06:32:30.933Z,985.11
2018-12-23T06:33:30.923Z,985.05
2018-12-23T06:34:30.911Z,984.98
2018-12-23T06:35:30.898Z,984.98
2018-12-23T06:36:30.888Z,984.99
2018-12-23T06:37:30.895Z,985.02
2018-12-23T06:38:30.864Z,985.00
2018-12-23T06:39:30.858Z,985.05
2018-12-23T06:40:30.847Z,984.98
2018-12-23T06:41:30.830Z,984.95
2018-12-23T06:42:30.830Z,984.98
2018-12-23T06:43:30.807Z,984.90
2018-12-23T06:44:30.799Z,984.98
2018-12-23T06:45:30.785Z,985.02
2018-12-23T06:46:30.774Z,985.00
2018-12-23T06:47:30.775Z,984.93
2018-12-23T06:48:30.750Z,984.90
2018-12-23T06:49:30.740Z,984.87
2018-12-23T06:50:30.730Z,984.88
2018-12-23T06:51:30.714Z,984.92
2018-12-23T06:52:30.723Z,984.90
2018-12-23T06:53:30.693Z,984.93
2018-12-23T06:54:30.678Z,984.94
2018-12-23T06:55:30.669Z,985.04
2018-12-23T06:56:30.657Z,985.09
2018-12-23T06:57:30.665Z,985.05
2018-12-23T06:58:30.633Z,985.09
2018-12-23T06:59:30.626Z,984.98
2018-12-23T07:00:30.612Z,985.06
2018-12-23T07:01:30.599Z,985.09
2018-12-23T07:02:30.609Z,985.15
2018-12-23T07:03:30.579Z,985.10
2018-12-23T07:04:30.567Z,985.13
2018-12-23T07:05:30.542Z,985.12
2018-12-23T07:06:30.544Z,985.11
2018-12-23T07:07:30.557Z,985.11
2018-12-23T07:08:30.522Z,985.11
2018-12-23T07:09:30.509Z,985.19
2018-12-23T07:10:30.498Z,985.21
2018-12-23T07:11:30.495Z,985.18
2018-12-23T07:12:30.490Z,985.28
2018-12-23T07:13:30.464Z,985.27
2018-12-23T07:14:30.454Z,985.27
2018-12-23T07:15:30.441Z,985.29
2018-12-23T07:16:30.430Z,985.25
2018-12-23T07:17:30.425Z,985.22
2018-12-23T07:18:30.408Z,985.25
2018-12-23T07:19:30.396Z,985.19
2018-12-23T07:20:30.388Z,985.20
2018-12-23T07:21:30.374Z,985.26
2018-12-23T07:22:30.377Z,985.26
2018-12-23T07:23:30.352Z,985.22
2018-12-23T07:24:30.342Z,985.22
2018-12-23T07:25:30.329Z,985.29
2018-12-23T07:26:30.317Z,985.29
2018-12-23T07:27:30.318Z,985.31
2018-12-23T07:28:30.295Z,985.27
2018-12-23T07:29:30.284Z,985.30
2018-12-23T07:30:30.269Z,985.30
2018-12-23T07:31:30.261Z,985.34
2018-12-23T07:32:30.272Z,985.28
2018-12-23T07:33:30.239Z,985.29
2018-12-23T07:34:30.229Z,985.29
2018-12-23T07:35:30.218Z,985.36
2018-12-23T07:36:30.210Z,985.26
2018-12-23T07:37:30.205Z,985.26
2018-12-23T07:38:30.184Z,985.23
2018-12-23T07:39:30.208Z,985.24
2018-12-23T07:40:30.160Z,985.23
2018-12-23T07:41:30.148Z,985.24
2018-12-23T07:42:30.154Z,985.31
2018-12-23T07:43:30.130Z,985.33
2018-12-23T07:44:30.111Z,985.32
2018-12-23T07:45:30.098Z,985.36
2018-12-23T07:46:30.088Z,985.35
2018-12-23T07:47:30.092Z,985.42
2018-12-23T07:48:30.064Z,985.39
2018-12-23T07:49:30.054Z,985.39
2018-12-23T07:50:30.042Z,985.40
2018-12-23T07:51:30.035Z,985.44
2018-12-23T07:52:30.039Z,985.41
2018-12-23T07:53:30.009Z,985.40
2018-12-23T07:54:30.001Z,985.44
2018-12-23T07:55:29.996Z,985.45
2018-12-23T07:56:29.974Z,985.38
2018-12-23T07:57:29.975Z,985.46
2018-12-23T07:58:29.952Z,985.44
2018-12-23T07:59:29.940Z,985.45
2018-12-23T08:00:29.930Z,985.43
2018-12-23T08:01:29.918Z,985.43
2018-12-23T08:02:29.919Z,985.40
2018-12-23T08:03:29.895Z,985.43
2018-12-23T08:04:29.885Z,985.44
2018-12-23T08:05:29.939Z,985.43
2018-12-23T08:06:29.863Z,985.42
2018-12-23T08:07:36.148Z,985.40
2018-12-23T08:08:30.838Z,985.41
2018-12-23T08:09:29.827Z,985.48
2018-12-23T08:10:29.930Z,985.46
2018-12-23T08:11:29.804Z,985.46
2018-12-23T08:12:29.806Z,985.41
2018-12-23T08:13:29.783Z,985.44
2018-12-23T08:14:29.775Z,985.42
2018-12-23T08:15:29.762Z,985.43
2018-12-23T08:16:29.748Z,985.42
2018-12-23T08:17:29.749Z,985.40
2018-12-23T08:18:29.731Z,985.36
2018-12-23T08:19:29.715Z,985.43
2018-12-23T08:20:29.709Z,985.40
2018-12-23T08:21:29.692Z,985.45
2018-12-23T08:22:29.694Z,985.41
2018-12-23T08:23:29.668Z,985.42
2018-12-23T08:24:29.660Z,985.36
2018-12-23T08:25:35.570Z,985.37
2018-12-23T08:26:30.632Z,985.36
2018-12-23T08:27:29.637Z,985.37
2018-12-23T08:28:29.608Z,985.37
2018-12-23T08:29:29.598Z,985.37
2018-12-23T08:30:29.586Z,985.40
2018-12-23T08:31:29.576Z,985.39
2018-12-23T08:32:29.584Z,985.42
2018-12-23T08:33:29.552Z,985.41
2018-12-23T08:34:29.541Z,985.47
2018-12-23T08:35:29.537Z,985.45
2018-12-23T08:36:29.519Z,985.48
2018-12-23T08:37:29.546Z,985.46
2018-12-23T08:38:29.491Z,985.45
2018-12-23T08:39:29.485Z,985.38
2018-12-23T08:40:29.475Z,985.41
2018-12-23T08:41:29.512Z,985.40
2018-12-23T08:42:29.450Z,985.35
2018-12-23T08:43:29.452Z,985.35
2018-12-23T08:44:29.427Z,985.36
2018-12-23T08:45:29.417Z,985.34
2018-12-23T08:46:29.405Z,985.41
2018-12-23T08:47:29.395Z,985.29
2018-12-23T08:48:29.401Z,985.34
2018-12-23T08:49:29.373Z,985.34
2018-12-23T08:50:29.361Z,985.40
2018-12-23T08:51:29.353Z,985.42
2018-12-23T08:52:29.337Z,985.39
2018-12-23T08:53:29.342Z,985.40
2018-12-23T08:54:29.317Z,985.39
2018-12-23T08:55:29.305Z,985.35
2018-12-23T08:56:29.292Z,985.39
2018-12-23T08:57:29.281Z,985.40
2018-12-23T08:58:29.282Z,985.42
2018-12-23T08:59:29.259Z,985.33
2018-12-23T09:00:29.296Z,985.36
2018-12-23T09:01:29.235Z,985.33
2018-12-23T09:02:29.229Z,985.29
2018-12-23T09:03:29.225Z,985.26
2018-12-23T09:04:29.205Z,985.29
2018-12-23T09:05:29.199Z,985.26
2018-12-23T09:06:29.180Z,985.32
2018-12-23T09:07:29.169Z,985.31
2018-12-23T09:08:29.169Z,985.27
2018-12-23T09:09:29.147Z,985.25
2018-12-23T09:10:29.155Z,985.29
2018-12-23T09:11:29.123Z,985.24
2018-12-23T09:12:29.116Z,985.26
2018-12-23T09:13:29.121Z,985.25
2018-12-23T09:14:29.094Z,985.26
2018-12-23T09:15:29.080Z,985.28
2018-12-23T09:16:29.066Z,985.29
2018-12-23T09:17:29.055Z,985.31
2018-12-23T09:18:29.055Z,985.34
2018-12-23T09:19:29.171Z,985.31
2018-12-23T09:20:29.018Z,985.24
2018-12-23T09:21:29.010Z,985.23
2018-12-23T09:22:28.995Z,985.28
2018-12-23T09:23:29.000Z,985.21
2018-12-23T09:24:28.973Z,985.24
2018-12-23T09:25:28.962Z,985.25
2018-12-23T09:26:28.953Z,985.27
2018-12-23T09:27:28.938Z,985.19
2018-12-23T09:28:28.947Z,985.24
2018-12-23T09:29:28.917Z,985.12
2018-12-23T09:30:28.921Z,985.14
2018-12-23T09:31:28.906Z,985.18
2018-12-23T09:32:28.881Z,985.14
2018-12-23T09:33:28.890Z,985.13
2018-12-23T09:34:28.860Z,985.04
2018-12-23T09:35:28.857Z,985.00
2018-12-23T09:36:28.844Z,984.99
2018-12-23T09:37:28.826Z,984.93
2018-12-23T09:38:28.834Z,985.01
2018-12-23T09:39:28.802Z,985.00
2018-12-23T09:40:28.791Z,984.99
2018-12-23T09:41:28.780Z,984.94
2018-12-23T09:42:28.770Z,984.92
2018-12-23T09:43:28.769Z,984.87
2018-12-23T09:44:28.745Z,984.94
2018-12-23T09:45:28.736Z,984.93
2018-12-23T09:46:28.724Z,984.89
2018-12-23T09:47:28.713Z,984.97
2018-12-23T09:48:28.713Z,984.92
2018-12-23T09:49:28.693Z,984.89
2018-12-23T09:50:28.677Z,984.90
2018-12-23T09:51:28.667Z,984.94
2018-12-23T09:52:28.661Z,984.93
2018-12-23T09:53:28.660Z,984.94
2018-12-23T09:54:28.633Z,984.99
2018-12-23T09:55:28.625Z,984.96
2018-12-23T09:56:28.610Z,984.96
2018-12-23T09:57:28.619Z,984.90
2018-12-23T09:58:28.601Z,984.90
2018-12-23T09:59:28.582Z,984.85
2018-12-23T10:00:28.573Z,984.84
2018-12-23T10:01:28.603Z,984.80
2018-12-23T10:02:28.545Z,984.83
2018-12-23T10:03:28.629Z,984.79
2018-12-23T10:04:28.522Z,984.81
2018-12-23T10:05:28.505Z,984.81
2018-12-23T10:06:28.503Z,984.77
2018-12-23T10:07:28.484Z,984.75
2018-12-23T10:08:28.492Z,984.75
2018-12-23T10:09:28.466Z,984.78
2018-12-23T10:10:28.768Z,984.71
2018-12-23T10:11:28.437Z,984.80
2018-12-23T10:12:28.430Z,984.77
2018-12-23T10:13:28.431Z,984.73
2018-12-23T10:14:28.411Z,984.77
2018-12-23T10:15:28.394Z,984.74
2018-12-23T10:16:28.382Z,984.67
2018-12-23T10:17:28.369Z,984.66
2018-12-23T10:18:28.384Z,984.64
2018-12-23T10:19:28.347Z,984.67
2018-12-23T10:20:28.337Z,984.65
2018-12-23T10:21:28.326Z,984.62
2018-12-23T10:22:28.318Z,984.55
2018-12-23T10:23:28.315Z,984.57
2018-12-23T10:24:28.292Z,984.59
2018-12-23T10:25:28.284Z,984.48
2018-12-23T10:26:28.268Z,984.47
2018-12-23T10:27:28.261Z,984.44
2018-12-23T10:28:28.257Z,984.44
2018-12-23T10:29:28.507Z,984.47
2018-12-23T10:30:28.234Z,984.36
2018-12-23T10:31:28.212Z,984.45
2018-12-23T10:32:28.202Z,984.44
2018-12-23T10:33:28.205Z,984.49
2018-12-23T10:34:28.180Z,984.46
2018-12-23T10:35:28.167Z,984.44
2018-12-23T10:36:28.156Z,984.46
2018-12-23T10:37:28.145Z,984.44
2018-12-23T10:38:28.152Z,984.43
2018-12-23T10:39:28.121Z,984.29
2018-12-23T10:40:28.114Z,984.28
2018-12-23T10:41:28.103Z,984.32
2018-12-23T10:42:28.097Z,984.35
2018-12-23T10:43:28.114Z,984.34
2018-12-23T10:44:28.065Z,984.31
2018-12-23T10:45:28.054Z,984.29
2018-12-23T10:46:28.047Z,984.31
2018-12-23T10:47:28.031Z,984.30
2018-12-23T10:48:28.100Z,984.29
2018-12-23T10:49:28.026Z,984.33
2018-12-23T10:50:27.997Z,984.27
2018-12-23T10:51:27.986Z,984.36
2018-12-23T10:52:27.978Z,984.28
2018-12-23T10:53:27.964Z,984.33
2018-12-23T10:54:27.969Z,984.28
2018-12-23T10:55:27.942Z,984.23
2018-12-23T10:56:27.995Z,984.17
2018-12-23T10:57:27.920Z,984.19
2018-12-23T10:58:27.908Z,984.12
2018-12-23T10:59:27.914Z,984.13
2018-12-23T11:00:27.889Z,984.12
2018-12-23T11:01:27.869Z,984.09
2018-12-23T11:02:27.863Z,984.10
2018-12-23T11:03:27.847Z,984.11
2018-12-23T11:04:27.859Z,984.01
2018-12-23T11:05:27.825Z,983.99
2018-12-23T11:06:27.813Z,983.94
2018-12-23T11:07:27.802Z,983.92
2018-12-23T11:08:27.785Z,983.95
2018-12-23T11:09:27.791Z,983.90
2018-12-23T11:10:27.769Z,983.88
2018-12-23T11:11:27.759Z,983.76
2018-12-23T11:12:27.745Z,983.85
2018-12-23T11:13:27.734Z,983.77
2018-12-23T11:14:27.741Z,983.71
2018-12-23T11:15:27.711Z,983.71
2018-12-23T11:16:27.720Z,983.71
2018-12-23T11:17:27.679Z,983.66
2018-12-23T11:18:27.678Z,983.67
2018-12-23T11:19:27.685Z,983.61
2018-12-23T11:20:27.660Z,983.59
2018-12-23T11:21:27.646Z,983.64
2018-12-23T11:22:27.634Z,983.61
2018-12-23T11:23:27.624Z,983.55
2018-12-23T11:24:27.637Z,983.54
2018-12-23T11:25:27.620Z,983.51
2018-12-23T11:26:27.591Z,983.46
2018-12-23T11:27:27.577Z,983.47
2018-12-23T11:28:27.570Z,983.48
2018-12-23T11:29:31.604Z,983.43
2018-12-23T11:30:27.541Z,983.46
2018-12-23T11:31:27.533Z,983.41
2018-12-23T11:32:27.521Z,983.42
2018-12-23T11:33:27.512Z,983.42
2018-12-23T11:34:27.508Z,983.35
2018-12-23T11:35:27.581Z,983.33
2018-12-23T11:36:27.475Z,983.34
2018-12-23T11:37:27.463Z,983.33
2018-12-23T11:38:35.263Z,983.35
2018-12-23T11:39:28.456Z,983.36
2018-12-23T11:40:27.434Z,983.35
2018-12-23T11:41:27.405Z,983.31
2018-12-23T11:42:27.411Z,983.29
2018-12-23T11:43:27.458Z,983.31
2018-12-23T11:44:27.403Z,983.28
2018-12-23T11:45:27.390Z,983.30
2018-12-23T11:46:27.368Z,983.20
2018-12-23T11:47:27.353Z,983.19
2018-12-23T11:48:27.343Z,983.21
2018-12-23T11:49:27.344Z,983.18
2018-12-23T11:50:27.320Z,983.19
2018-12-23T11:51:27.308Z,983.18
2018-12-23T11:52:27.291Z,983.15
2018-12-23T11:53:27.289Z,983.15
2018-12-23T11:54:27.288Z,983.14
2018-12-23T11:55:27.283Z,983.13
2018-12-23T11:56:27.287Z,983.10
2018-12-23T11:57:27.246Z,983.13
2018-12-23T11:58:27.238Z,983.09
2018-12-23T11:59:27.237Z,983.08
2018-12-23T12:00:27.212Z,983.15
2018-12-23T12:01:27.196Z,983.13
2018-12-23T12:02:27.184Z,983.12
2018-12-23T12:03:27.177Z,983.10
2018-12-23T12:04:27.174Z,983.09
2018-12-23T12:05:27.156Z,983.07
2018-12-23T12:06:27.140Z,983.09
2018-12-23T12:07:27.124Z,983.10
2018-12-23T12:08:27.118Z,983.06
2018-12-23T12:09:27.122Z,983.01
2018-12-23T12:10:27.098Z,983.03
2018-12-23T12:11:27.087Z,983.02
2018-12-23T12:12:27.076Z,982.99
2018-12-23T12:13:27.065Z,982.98
2018-12-23T12:14:27.068Z,982.98
2018-12-23T12:15:27.043Z,982.98
2018-12-23T12:16:27.030Z,982.98
2018-12-23T12:17:27.023Z,982.92
2018-12-23T12:18:27.008Z,982.96
2018-12-23T12:19:27.010Z,982.98
2018-12-23T12:20:26.989Z,982.88
2018-12-23T12:21:26.976Z,982.87
2018-12-23T12:22:26.964Z,982.91
2018-12-23T12:23:26.952Z,982.69
2018-12-23T12:24:26.956Z,982.89
2018-12-23T12:25:26.930Z,982.81
2018-12-23T12:26:26.923Z,982.69
2018-12-23T12:27:26.908Z,982.70
2018-12-23T12:28:26.901Z,982.72
2018-12-23T12:29:26.901Z,982.69
2018-12-23T12:30:26.872Z,982.73
2018-12-23T12:31:26.863Z,982.70
2018-12-23T12:32:26.850Z,982.72
2018-12-23T12:33:26.835Z,982.67
2018-12-23T12:34:26.844Z,982.58
2018-12-23T12:35:26.822Z,982.67
2018-12-23T12:36:26.805Z,982.70
2018-12-23T12:37:26.798Z,982.69
2018-12-23T12:38:26.786Z,982.70
2018-12-23T12:39:30.878Z,982.71
2018-12-23T12:40:26.764Z,982.65
2018-12-23T12:41:26.753Z,982.56
2018-12-23T12:42:26.729Z,982.59
2018-12-23T12:43:26.731Z,982.49
2018-12-23T12:44:26.735Z,982.44
2018-12-23T12:45:26.724Z,982.41
2018-12-23T12:46:26.697Z,982.42
2018-12-23T12:47:26.690Z,982.32
2018-12-23T12:48:26.676Z,982.26
2018-12-23T12:49:26.697Z,982.28
2018-12-23T12:50:26.655Z,982.31
2018-12-23T12:51:26.644Z,982.29
2018-12-23T12:52:26.634Z,982.26
2018-12-23T12:53:26.628Z,982.24
2018-12-23T12:54:26.613Z,982.18
2018-12-23T12:55:26.611Z,982.21
2018-12-23T12:56:26.596Z,982.20
2018-12-23T12:57:26.577Z,982.17
2018-12-23T12:58:26.569Z,982.19
2018-12-23T12:59:26.557Z,982.24
2018-12-23T13:00:26.543Z,982.23
2018-12-23T13:01:26.535Z,982.20
2018-12-23T13:02:26.521Z,982.18
2018-12-23T13:03:26.509Z,982.16
2018-12-23T13:04:26.499Z,982.14
2018-12-23T13:05:26.503Z,982.14
2018-12-23T13:06:26.483Z,982.17
2018-12-23T13:07:26.482Z,982.10
2018-12-23T13:08:26.459Z,982.13
2018-12-23T13:09:26.451Z,982.06
2018-12-23T13:10:26.448Z,982.11
2018-12-23T13:11:26.431Z,982.15
2018-12-23T13:12:26.411Z,982.14
2018-12-23T13:13:26.401Z,982.08
2018-12-23T13:14:26.390Z,982.09
2018-12-23T13:15:26.445Z,982.11
2018-12-23T13:16:26.381Z,982.07
2018-12-23T13:17:26.357Z,982.06
2018-12-23T13:18:26.346Z,981.98
2018-12-23T13:19:26.322Z,982.07
2018-12-23T13:20:28.309Z,982.03
2018-12-23T13:21:26.311Z,982.04
2018-12-23T13:22:26.300Z,982.05
2018-12-23T13:23:26.288Z,982.07
2018-12-23T13:24:26.278Z,982.02
2018-12-23T13:25:26.282Z,982.05
2018-12-23T13:26:26.254Z,982.00
2018-12-23T13:27:26.246Z,981.98
2018-12-23T13:28:26.245Z,981.93
2018-12-23T13:29:26.227Z,981.93
2018-12-23T13:30:26.221Z,982.00
2018-12-23T13:31:26.202Z,981.98
2018-12-23T13:32:26.195Z,981.99
2018-12-23T13:33:26.180Z,981.96
2018-12-23T13:34:26.169Z,982.02
2018-12-23T13:35:26.168Z,981.96
2018-12-23T13:36:26.149Z,981.93
2018-12-23T13:37:26.134Z,981.90
2018-12-23T13:38:26.122Z,981.90
2018-12-23T13:39:26.117Z,981.93
2018-12-23T13:40:26.119Z,981.88
2018-12-23T13:41:26.084Z,981.86
2018-12-23T13:42:26.079Z,981.92
2018-12-23T13:43:26.067Z,981.92
2018-12-23T13:44:26.055Z,981.91
2018-12-23T13:45:26.056Z,981.90
2018-12-23T13:46:26.034Z,981.89
2018-12-23T13:47:26.022Z,981.86
2018-12-23T13:48:26.011Z,981.77
2018-12-23T13:49:26.006Z,981.76
2018-12-23T13:50:26.012Z,981.76
2018-12-23T13:51:25.976Z,981.75
2018-12-23T13:52:25.963Z,981.72
2018-12-23T13:53:25.953Z,981.79
2018-12-23T13:54:25.942Z,981.90
2018-12-23T13:55:25.948Z,981.84
2018-12-23T13:56:25.919Z,981.83
2018-12-23T13:57:25.907Z,981.89
2018-12-23T13:58:25.897Z,981.80
2018-12-23T13:59:25.887Z,981.76
2018-12-23T14:00:25.887Z,981.74
2018-12-23T14:01:25.868Z,981.69
2018-12-23T14:02:25.855Z,981.64
2018-12-23T14:03:25.846Z,981.70
2018-12-23T14:04:25.832Z,981.69
2018-12-23T14:05:25.834Z,981.64
2018-12-23T14:06:25.810Z,981.65
2018-12-23T14:07:25.799Z,981.59
2018-12-23T14:08:25.787Z,981.58
2018-12-23T14:09:25.776Z,981.57
2018-12-23T14:10:25.779Z,981.51
2018-12-23T14:11:25.755Z,981.51
2018-12-23T14:12:25.746Z,981.48
2018-12-23T14:13:25.731Z,981.50
2018-12-23T14:14:25.720Z,981.39
2018-12-23T14:15:25.725Z,981.41
2018-12-23T14:16:25.697Z,981.39
2018-12-23T14:17:25.686Z,981.44
2018-12-23T14:18:25.677Z,981.37
2018-12-23T14:19:25.663Z,981.34
2018-12-23T14:20:25.668Z,981.38
2018-12-23T14:21:25.645Z,981.34
2018-12-23T14:22:25.630Z,981.38
2018-12-23T14:23:25.623Z,981.34
2018-12-23T14:24:25.607Z,981.37
2018-12-23T14:25:25.612Z,981.42
2018-12-23T14:26:25.598Z,981.38
2018-12-23T14:27:25.569Z,981.42
2018-12-23T14:28:25.562Z,981.40
2018-12-23T14:29:25.552Z,981.42
2018-12-23T14:30:25.556Z,981.38
2018-12-23T14:31:25.533Z,981.32
2018-12-23T14:32:25.517Z,981.35
2018-12-23T14:33:25.509Z,981.24
2018-12-23T14:34:25.522Z,981.30
2018-12-23T14:35:25.515Z,981.23
2018-12-23T14:36:25.494Z,981.22
2018-12-23T14:37:25.468Z,981.21
2018-12-23T14:38:25.465Z,981.16
2018-12-23T14:39:28.219Z,981.17
2018-12-23T14:40:26.270Z,981.25
2018-12-23T14:41:25.414Z,981.19
2018-12-23T14:42:25.421Z,981.18
2018-12-23T14:43:25.404Z,981.19
2018-12-23T14:44:25.433Z,981.19
2018-12-23T14:45:25.418Z,981.17
2018-12-23T14:46:25.363Z,981.07
2018-12-23T14:47:25.357Z,981.09
2018-12-23T14:48:25.351Z,981.07
2018-12-23T14:49:25.363Z,981.09
2018-12-23T14:50:25.349Z,981.07
2018-12-23T14:51:25.335Z,981.02
2018-12-23T14:52:25.311Z,981.01
2018-12-23T14:53:25.294Z,981.05
2018-12-23T14:54:25.281Z,981.04
2018-12-23T14:55:25.350Z,980.99
2018-12-23T14:56:25.254Z,980.98
2018-12-23T14:57:25.251Z,980.94
2018-12-23T14:58:25.242Z,980.95
2018-12-23T14:59:25.229Z,980.87
2018-12-23T15:00:25.217Z,980.89
2018-12-23T15:01:25.218Z,980.87
2018-12-23T15:02:25.197Z,980.88
2018-12-23T15:03:25.183Z,980.87
2018-12-23T15:04:25.168Z,980.83
2018-12-23T15:05:25.169Z,980.85
2018-12-23T15:06:25.170Z,980.85
2018-12-23T15:07:25.133Z,980.83
2018-12-23T15:08:25.132Z,980.86
2018-12-23T15:09:25.109Z,980.80
2018-12-23T15:10:25.100Z,980.78
2018-12-23T15:11:25.135Z,980.73
2018-12-23T15:12:25.078Z,980.73
2018-12-23T15:13:25.071Z,980.65
2018-12-23T15:14:25.065Z,980.73
2018-12-23T15:15:25.050Z,980.70
2018-12-23T15:16:25.057Z,980.70
2018-12-23T15:17:25.028Z,980.67
2018-12-23T15:18:25.018Z,980.63
2018-12-23T15:19:25.003Z,980.57
2018-12-23T15:20:24.998Z,980.57
2018-12-23T15:21:24.981Z,980.52
2018-12-23T15:22:24.981Z,980.50
2018-12-23T15:23:24.967Z,980.53
2018-12-23T15:24:24.951Z,980.53
2018-12-23T15:25:24.937Z,980.52
2018-12-23T15:26:24.944Z,980.49
2018-12-23T15:27:24.917Z,980.46
2018-12-23T15:28:24.912Z,980.46
2018-12-23T15:29:24.915Z,980.42
2018-12-23T15:30:24.876Z,980.40
2018-12-23T15:31:24.919Z,980.35
2018-12-23T15:32:24.862Z,980.37
2018-12-23T15:33:24.849Z,980.40
2018-12-23T15:34:24.847Z,980.31
2018-12-23T15:35:24.827Z,980.26
2018-12-23T15:36:24.837Z,980.27
2018-12-23T15:37:24.814Z,980.24
2018-12-23T15:38:24.805Z,980.23
2018-12-23T15:39:24.787Z,980.26
2018-12-23T15:40:24.774Z,980.24
2018-12-23T15:41:24.778Z,980.26
2018-12-23T15:42:24.747Z,980.22
2018-12-23T15:43:24.737Z,980.21
2018-12-23T15:44:24.730Z,980.17
2018-12-23T15:45:24.721Z,980.16
2018-12-23T15:46:24.732Z,980.15
2018-12-23T15:47:24.687Z,980.15
2018-12-23T15:48:24.684Z,980.17
2018-12-23T15:49:24.675Z,980.16
2018-12-23T15:50:24.669Z,980.12
2018-12-23T15:51:24.686Z,980.08
2018-12-23T15:52:24.644Z,980.08
2018-12-23T15:53:24.639Z,980.03
2018-12-23T15:54:24.622Z,979.98
2018-12-23T15:55:24.610Z,980.02
2018-12-23T15:56:24.616Z,980.00
2018-12-23T15:57:24.586Z,979.97
2018-12-23T15:58:24.579Z,979.99
2018-12-23T15:59:24.564Z,980.01
2018-12-23T16:00:24.557Z,980.04
2018-12-23T16:01:24.567Z,980.02
2018-12-23T16:02:24.528Z,980.03
2018-12-23T16:03:24.523Z,979.97
2018-12-23T16:04:24.516Z,979.98
2018-12-23T16:05:24.498Z,979.94
2018-12-23T16:06:24.501Z,979.92
2018-12-23T16:07:24.484Z,979.93
2018-12-23T16:08:24.463Z,979.94
2018-12-23T16:09:24.455Z,979.87
2018-12-23T16:10:24.447Z,979.88
2018-12-23T16:11:24.453Z,979.83
2018-12-23T16:12:24.456Z,979.78
2018-12-23T16:13:24.410Z,979.80
2018-12-23T16:14:24.386Z,979.78
2018-12-23T16:15:24.379Z,979.76
2018-12-23T16:16:24.395Z,979.74
2018-12-23T16:17:24.368Z,979.75
2018-12-23T16:18:24.350Z,979.67
2018-12-23T16:19:24.343Z,979.60
2018-12-23T16:20:24.331Z,979.63
2018-12-23T16:21:24.362Z,979.60
2018-12-23T16:22:24.309Z,979.65
2018-12-23T16:23:24.294Z,979.66
2018-12-23T16:24:24.284Z,979.60
2018-12-23T16:25:24.284Z,979.58
2018-12-23T16:26:24.299Z,979.61
2018-12-23T16:27:24.253Z,979.64
2018-12-23T16:28:24.272Z,979.59
2018-12-23T16:29:24.217Z,979.55
2018-12-23T16:30:24.229Z,979.55
2018-12-23T16:31:24.227Z,979.50
2018-12-23T16:32:24.196Z,979.47
2018-12-23T16:33:24.197Z,979.40
2018-12-23T16:34:24.173Z,979.36
2018-12-23T16:35:24.161Z,979.41
2018-12-23T16:36:24.186Z,979.33
2018-12-23T16:37:24.142Z,979.33
2018-12-23T16:38:24.146Z,979.30
2018-12-23T16:39:24.117Z,979.28
2018-12-23T16:40:24.105Z,979.23
2018-12-23T16:41:24.122Z,979.22
2018-12-23T16:42:24.091Z,979.21
2018-12-23T16:43:24.076Z,979.23
2018-12-23T16:44:24.063Z,979.21
2018-12-23T16:45:24.056Z,979.21
2018-12-23T16:46:24.059Z,979.22
2018-12-23T16:47:24.051Z,979.18
2018-12-23T16:48:24.012Z,979.16
2018-12-23T16:49:24.033Z,979.08
2018-12-23T16:50:24.012Z,979.08
2018-12-23T16:51:24.003Z,979.05
2018-12-23T16:52:23.994Z,979.03
2018-12-23T16:53:23.984Z,979.02
2018-12-23T16:54:23.949Z,979.04
2018-12-23T16:55:23.944Z,979.00
2018-12-23T16:56:23.952Z,978.99
2018-12-23T16:57:23.917Z,978.99
2018-12-23T16:58:23.907Z,978.93
2018-12-23T16:59:23.901Z,978.92
2018-12-23T17:00:23.901Z,978.93
2018-12-23T17:01:23.894Z,978.94
2018-12-23T17:02:23.870Z,978.92
2018-12-23T17:03:23.858Z,978.92
2018-12-23T17:04:23.846Z,978.94
2018-12-23T17:05:23.844Z,978.90
2018-12-23T17:06:25.779Z,978.87
2018-12-23T17:07:23.830Z,978.83
2018-12-23T17:08:23.796Z,978.77
2018-12-23T17:09:23.819Z,978.80
2018-12-23T17:10:23.781Z,978.83
2018-12-23T17:11:23.760Z,978.76
2018-12-23T17:12:23.790Z,978.77
2018-12-23T17:13:23.754Z,978.75
2018-12-23T17:14:23.733Z,978.74
2018-12-23T17:15:23.737Z,978.69
2018-12-23T17:16:23.715Z,978.69
2018-12-23T17:17:23.730Z,978.65
2018-12-23T17:18:23.684Z,978.60
2018-12-23T17:19:23.675Z,978.62
2018-12-23T17:20:23.663Z,978.64
2018-12-23T17:21:23.658Z,978.61
2018-12-23T17:22:23.663Z,978.57
2018-12-23T17:23:23.626Z,978.51
2018-12-23T17:24:23.617Z,978.48
2018-12-23T17:25:23.614Z,978.46
2018-12-23T17:26:23.601Z,978.40
2018-12-23T17:27:23.612Z,978.38
2018-12-23T17:28:25.246Z,978.37